createdAt,value
2019-03-04T07:06:04.544Z,52.80
2019-03-04T07:09:12.531Z,52.80
2019-03-04T07:12:00.814Z,52.60
2019-03-04T07:14:48.718Z,52.50
2019-03-04T07:17:36.710Z,52.50
2019-03-04T07:20:24.608Z,52.50
2019-03-04T07:23:12.532Z,52.30
2019-03-04T07:26:00.464Z,52.00
2019-03-04T07:28:48.392Z,52.00
2019-03-04T07:31:36.611Z,52.10
2019-03-04T07:34:24.538Z,52.30
2019-03-04T07:37:12.469Z,52.50
2019-03-04T07:40:00.366Z,52.70
2019-03-04T07:42:48.268Z,52.80
2019-03-04T07:45:36.232Z,53.00
2019-03-04T07:48:24.148Z,53.30
2019-03-04T07:51:12.852Z,53.40
2019-03-04T07:54:00.768Z,53.50
2019-03-04T07:56:48.967Z,53.70
2019-03-04T07:59:37.120Z,53.80
2019-03-04T08:02:25.140Z,53.90
2019-03-04T08:05:13.312Z,54.10
2019-03-04T08:08:01.270Z,54.00
2019-03-04T08:11:08.730Z,54.10
2019-03-04T08:13:58.300Z,54.40
2019-03-04T08:16:46.539Z,54.40
2019-03-04T08:19:34.502Z,54.30
2019-03-04T08:22:23.238Z,54.40
2019-03-04T08:25:12.300Z,54.40
2019-03-04T08:28:00.205Z,54.40
2019-03-04T18:46:19.228Z,50.40
2019-03-04T18:49:07.520Z,50.30
2019-03-04T18:51:55.490Z,50.30
2019-03-04T18:57:54.047Z,50.30
2019-03-04T19:00:35.137Z,50.30
2019-03-04T19:03:15.799Z,50.30
2019-03-04T19:05:56.449Z,50.20
2019-03-04T19:08:37.337Z,50.40
2019-03-04T19:11:18.093Z,50.40
2019-03-04T19:13:58.957Z,50.50
2019-03-04T19:19:21.672Z,50.50
2019-03-04T19:22:02.618Z,50.50
2019-03-04T19:24:43.261Z,50.40
2019-03-04T19:27:23.784Z,50.50
2019-03-04T19:30:04.587Z,50.60
2019-03-04T19:32:33.167Z,50.60
2019-03-04T19:35:21.338Z,50.80
2019-03-04T19:38:09.250Z,50.90
2019-03-04T19:40:57.458Z,50.70
2019-03-04T19:43:45.846Z,50.80
2019-03-04T19:46:14.518Z,50.70
2019-03-04T19:48:43.345Z,50.70
2019-03-04T19:51:31.273Z,50.70
2019-03-04T19:54:19.509Z,50.70
2019-03-04T19:57:07.739Z,50.80
2019-03-04T19:59:55.873Z,50.90
2019-03-04T20:02:37.084Z,50.80
2019-03-04T20:05:17.812Z,51.00
2019-03-04T20:07:58.657Z,51.00
2019-03-04T20:10:39.572Z,51.00
2019-03-04T20:13:21.932Z,51.20
2019-03-04T20:16:02.322Z,51.00
2019-03-04T20:18:43.306Z,50.90
2019-03-04T20:21:24.320Z,51.00
2019-03-04T20:24:05.256Z,51.00
2019-03-04T20:26:46.399Z,51.00
2019-03-04T20:29:27.543Z,51.20
2019-03-04T20:32:08.131Z,51.20
2019-03-04T20:34:49.311Z,51.00
2019-03-04T20:37:29.919Z,51.00
2019-03-04T20:40:10.556Z,51.10
2019-03-04T20:42:51.611Z,51.10
2019-03-04T20:48:31.064Z,51.60
2019-03-04T20:50:59.858Z,51.20
2019-03-04T20:54:09.732Z,51.30
2019-03-04T20:59:27.047Z,51.30
2019-03-04T21:02:15.552Z,51.50
2019-03-04T21:05:03.719Z,51.30
2019-03-04T21:07:51.652Z,51.40
2019-03-04T21:10:39.875Z,51.40
2019-03-04T21:13:35.163Z,51.60
2019-03-04T21:16:17.687Z,51.60
2019-03-04T21:19:05.843Z,51.70
2019-03-04T21:21:53.800Z,51.70
2019-03-04T21:24:41.699Z,51.80
2019-03-04T21:27:29.634Z,51.90
2019-03-04T21:30:37.100Z,51.80
2019-03-04T21:33:44.322Z,51.80
2019-03-04T21:36:51.533Z,51.80
2019-03-04T21:39:39.813Z,51.90
2019-03-04T21:42:37.546Z,52.00
2019-03-04T21:45:45.399Z,52.00
2019-03-04T21:48:48.779Z,52.10
2019-03-04T21:51:45.903Z,52.20
2019-03-04T21:54:33.796Z,52.20
2019-03-04T21:57:41.036Z,52.30
2019-03-04T22:00:48.309Z,52.20
2019-03-04T22:03:29.335Z,52.30
2019-03-04T22:06:10.373Z,52.30
2019-03-04T22:08:51.072Z,52.40
2019-03-04T22:11:32.386Z,52.50
2019-03-04T22:14:13.068Z,52.40
2019-03-04T22:16:53.896Z,52.40
2019-03-04T22:19:34.952Z,52.50
2019-03-04T22:22:15.631Z,52.60
2019-03-04T22:24:56.489Z,52.50
2019-03-04T22:27:37.364Z,52.50
2019-03-04T22:30:18.044Z,52.60
2019-03-04T22:32:59.033Z,52.60
2019-03-04T22:35:40.070Z,52.70
2019-03-04T22:38:21.266Z,52.80
2019-03-04T22:41:02.176Z,52.80
2019-03-04T22:43:42.979Z,52.90
2019-03-04T22:46:24.295Z,52.80
2019-03-04T22:49:04.825Z,52.80
2019-03-04T22:51:45.477Z,52.80
2019-03-04T22:54:26.086Z,52.80
2019-03-04T22:57:06.976Z,52.80
2019-03-04T22:59:47.801Z,52.90
2019-03-04T23:02:28.592Z,52.80
2019-03-04T23:05:09.516Z,52.90
2019-03-04T23:07:50.470Z,53.00
2019-03-04T23:10:31.191Z,53.00
2019-03-04T23:13:12.323Z,53.00
2019-03-04T23:15:53.204Z,53.10
2019-03-04T23:18:34.417Z,53.00
2019-03-04T23:21:14.789Z,52.90
2019-03-04T23:23:55.528Z,53.00
2019-03-04T23:26:36.365Z,53.10
2019-03-04T23:29:17.272Z,53.20
2019-03-04T23:31:58.313Z,52.80
2019-03-04T23:34:39.317Z,53.00
2019-03-04T23:37:19.823Z,53.00
2019-03-04T23:40:00.446Z,53.20
2019-03-04T23:42:43.031Z,53.10
2019-03-04T23:45:24.249Z,53.10
2019-03-04T23:48:05.195Z,53.20
2019-03-04T23:50:45.961Z,53.20
2019-03-04T23:53:27.275Z,53.30
2019-03-04T23:56:07.780Z,53.20
2019-03-04T23:58:48.577Z,53.30
